Cleveland, Ohio
Traffic Map
Current Weather Conditions
Cleveland, Ohio
Clear
Clear
14°
Feels Like: 3°
Wind Chill: Ceiling: Unl
Heat Index: 14° Visibility: 10mi
Dew Point: Wind: 8mph
Humidity: 59% Direction: 320° (NW)
Pressure: 30.39in Gusts: 0mph
Raw Report DataKBKL 051953Z 32007KT 10SM CLR M10/M17 A3039 RMK AO2 SLP302 T11001167
Traffic Incident Summary
Active as of:
Severity:
Category:
InformationThere was an issue retrieving the traffic information for this location. Please try a different location or try again shortly.
Advertisements
Track Severe Weather on mobile